Time;durP1;ratioP1;P1;durP2;ratioP2;P2;SDS_P1;SDS_P2;PMS_P1;PMS_P2;Temp;Humidity;BMP_temperature;BMP_pressure;BME280_temperature;BME280_humidity;BME280_pressure;Samples;Min_cycle;Max_cycle;Signal;HPM_P1;HPM_P2
2022/07/20 00:01:13;;;;;;;5.23;4.20;;;24.30;99.90;;;;;;5073536;28;20574;-71
2022/07/20 00:03:41;;;;;;;6.20;4.60;;;24.20;99.90;;;;;;5073492;28;20696;-71
2022/07/20 00:06:08;;;;;;;5.27;4.50;;;24.20;99.90;;;;;;5073476;28;20562;-71
2022/07/20 00:11:19;;;;;;;11.80;4.70;;;24.10;99.90;;;;;;5073410;28;20613;-71
2022/07/20 00:13:55;;;;;;;6.13;5.10;;;24.00;99.90;;;;;;5073724;28;20583;-71
2022/07/20 00:16:24;;;;;;;5.27;4.70;;;24.00;99.90;;;;;;5072902;28;20621;-71
2022/07/20 00:18:50;;;;;;;7.10;4.23;;;23.90;99.90;;;;;;5073134;28;20579;-71
2022/07/20 00:21:18;;;;;;;5.67;4.83;;;23.90;99.90;;;;;;5051701;28;20991;-71
2022/07/20 00:23:44;;;;;;;8.50;4.60;;;23.80;99.90;;;;;;5053485;28;21036;-71
2022/07/20 00:26:11;;;;;;;5.53;4.90;;;23.50;99.90;;;;;;5072992;28;20630;-71
2022/07/20 00:28:37;;;;;;;6.33;4.30;;;23.40;99.90;;;;;;5076388;28;20586;-71
2022/07/20 00:31:04;;;;;;;5.03;3.97;;;23.30;99.90;;;;;;5077231;28;20602;-71
2022/07/20 00:33:31;;;;;;;15.30;4.90;;;23.20;99.90;;;;;;5076985;28;21115;-71
2022/07/20 00:35:58;;;;;;;6.13;4.93;;;23.10;99.90;;;;;;5058687;28;20994;-71
2022/07/20 00:38:24;;;;;;;5.13;4.00;;;23.00;99.90;;;;;;5076705;28;20643;-71
2022/07/20 00:40:51;;;;;;;10.33;5.23;;;23.00;99.90;;;;;;5058197;28;20722;-71
2022/07/20 00:43:17;;;;;;;5.40;5.00;;;23.00;99.90;;;;;;5076741;28;20585;-71
2022/07/20 00:45:44;;;;;;;5.23;4.70;;;22.70;99.90;;;;;;5076804;28;20575;-71
2022/07/20 00:48:11;;;;;;;5.47;4.97;;;22.70;99.90;;;;;;5076734;28;20617;-72
2022/07/20 00:50:38;;;;;;;8.00;4.97;;;22.50;99.90;;;;;;5076764;28;20563;-72
2022/07/20 00:53:05;;;;;;;5.20;4.80;;;22.40;99.90;;;;;;5076798;28;20567;-72
2022/07/20 00:55:32;;;;;;;7.50;5.33;;;22.40;99.90;;;;;;5076469;28;20597;-72
2022/07/20 00:57:58;;;;;;;11.20;5.17;;;22.40;99.90;;;;;;5076433;28;20668;-72
2022/07/20 01:00:25;;;;;;;6.93;5.40;;;22.50;99.90;;;;;;5076212;28;20675;-72
2022/07/20 01:02:51;;;;;;;5.83;5.27;;;22.70;99.90;;;;;;5076255;28;20582;-72
2022/07/20 01:05:18;;;;;;;10.10;5.17;;;22.80;99.90;;;;;;5076632;28;20690;-72
2022/07/20 01:07:47;;;;;;;6.90;6.30;;;22.80;99.90;;;;;;5076369;28;21108;-72
2022/07/20 01:10:15;;;;;;;7.33;4.60;;;22.90;99.90;;;;;;5076436;28;20570;-72
2022/07/20 01:12:47;;;;;;;7.33;5.07;;;22.90;99.90;;;;;;5076102;28;21164;-72
2022/07/20 01:15:14;;;;;;;5.20;4.77;;;22.80;99.90;;;;;;5075751;28;20982;-72
2022/07/20 01:17:41;;;;;;;5.90;5.30;;;22.60;99.90;;;;;;5076227;28;20670;-72
2022/07/20 01:20:13;;;;;;;5.77;5.20;;;22.40;99.90;;;;;;5075293;28;20683;-72
2022/07/20 01:22:40;;;;;;;5.30;4.80;;;22.30;99.90;;;;;;5076021;28;20574;-72
2022/07/20 01:25:07;;;;;;;8.57;5.50;;;22.20;99.90;;;;;;5054408;28;21184;-72
2022/07/20 01:27:33;;;;;;;10.37;5.57;;;22.20;99.90;;;;;;5037944;28;20626;-72
2022/07/20 01:30:00;;;;;;;6.10;5.50;;;22.20;99.90;;;;;;5076201;28;20700;-72
2022/07/20 01:32:26;;;;;;;8.27;5.37;;;22.30;99.90;;;;;;5075877;28;21204;-72
2022/07/20 01:34:53;;;;;;;8.23;6.23;;;22.30;99.90;;;;;;5075769;28;20664;-72
2022/07/20 01:37:19;;;;;;;7.83;5.77;;;22.30;99.90;;;;;;5074033;28;20629;-72
2022/07/20 01:39:46;;;;;;;5.60;4.60;;;22.20;99.90;;;;;;5074514;28;20654;-72
2022/07/20 01:42:12;;;;;;;9.23;5.47;;;22.20;99.90;;;;;;5075464;28;20612;-72
2022/07/20 01:44:38;;;;;;;6.40;5.80;;;22.20;99.90;;;;;;5075439;28;20653;-72
2022/07/20 01:47:05;;;;;;;6.10;5.40;;;22.00;99.90;;;;;;5075796;28;20613;-72
2022/07/20 01:49:31;;;;;;;5.50;5.00;;;21.90;99.90;;;;;;5075362;28;21140;-72
2022/07/20 01:51:58;;;;;;;6.50;5.80;;;21.80;99.90;;;;;;5075770;28;20574;-72
2022/07/20 01:54:24;;;;;;;9.30;6.00;;;21.70;99.90;;;;;;5075581;28;20575;-71
2022/07/20 01:56:50;;;;;;;7.40;5.30;;;21.70;99.90;;;;;;5075201;28;20571;-72
2022/07/20 01:59:16;;;;;;;9.90;4.63;;;21.60;99.90;;;;;;5075589;28;20610;-72
2022/07/20 02:01:43;;;;;;;6.07;5.10;;;21.60;99.90;;;;;;5075384;28;20631;-72
2022/07/20 02:04:09;;;;;;;6.80;4.80;;;21.50;99.90;;;;;;5075119;28;20630;-72
2022/07/20 02:06:35;;;;;;;7.00;5.20;;;21.50;99.90;;;;;;5075163;28;21113;-72
2022/07/20 02:09:02;;;;;;;5.90;5.50;;;21.60;99.90;;;;;;5075195;28;20660;-72
2022/07/20 02:11:28;;;;;;;5.67;5.17;;;21.60;99.90;;;;;;5037250;28;20568;-72
2022/07/20 02:13:55;;;;;;;6.63;6.03;;;21.60;99.90;;;;;;5074786;28;21125;-72
2022/07/20 02:16:21;;;;;;;14.83;5.47;;;21.60;99.90;;;;;;5075142;28;20668;-72
2022/07/20 02:18:53;;;;;;;10.23;5.27;;;21.60;99.90;;;;;;5075080;28;20582;-72
2022/07/20 02:21:20;;;;;;;8.50;5.10;;;21.50;99.90;;;;;;5074841;28;20606;-72
2022/07/20 02:23:47;;;;;;;8.10;5.53;;;21.50;99.90;;;;;;5074857;28;20690;-72
2022/07/20 02:26:15;;;;;;;5.03;4.63;;;21.50;99.90;;;;;;5074532;28;20570;-72
2022/07/20 02:28:41;;;;;;;5.57;5.07;;;21.60;99.90;;;;;;5075067;28;20577;-72
2022/07/20 02:31:08;;;;;;;6.90;4.87;;;21.50;99.90;;;;;;5074856;28;20571;-72
2022/07/20 02:33:35;;;;;;;8.73;4.97;;;21.50;99.90;;;;;;5074457;28;20942;-72
2022/07/20 02:36:01;;;;;;;9.87;6.20;;;21.40;99.90;;;;;;5072969;28;21227;-72
2022/07/20 02:38:28;;;;;;;7.23;5.80;;;21.30;99.90;;;;;;5074538;28;20621;-72
2022/07/20 02:40:55;;;;;;;11.70;5.60;;;21.30;99.90;;;;;;5072856;28;20987;-72
2022/07/20 02:43:21;;;;;;;6.50;5.90;;;21.30;99.90;;;;;;5052593;28;20615;-72
2022/07/20 02:45:48;;;;;;;5.57;5.07;;;21.30;99.90;;;;;;5073390;28;20642;-72
2022/07/20 02:48:14;;;;;;;6.37;5.70;;;21.30;99.90;;;;;;5074678;28;21065;-72
2022/07/20 02:50:42;;;;;;;12.03;5.13;;;21.30;99.90;;;;;;5053902;28;20588;-72
2022/07/20 02:53:10;;;;;;;10.53;5.60;;;21.30;99.90;;;;;;5074150;28;20578;-71
2022/07/20 02:55:38;;;;;;;7.27;5.13;;;21.20;99.90;;;;;;5073600;28;20751;-71
2022/07/20 02:58:05;;;;;;;5.30;4.87;;;21.10;99.90;;;;;;5074096;28;20672;-72
2022/07/20 03:00:31;;;;;;;5.53;5.03;;;21.10;99.90;;;;;;5074281;28;20586;-72
2022/07/20 03:02:58;;;;;;;6.90;5.10;;;21.00;99.90;;;;;;5074467;28;20795;-72
2022/07/20 03:05:25;;;;;;;11.93;5.80;;;21.00;99.90;;;;;;5052752;28;20650;-72
2022/07/20 03:07:52;;;;;;;7.07;5.30;;;20.90;99.90;;;;;;5073731;28;20567;-72
2022/07/20 03:10:18;;;;;;;9.53;5.30;;;21.00;99.90;;;;;;5073905;28;21020;-72
2022/07/20 03:12:45;;;;;;;5.63;5.03;;;21.00;99.90;;;;;;5074869;28;20563;-72
2022/07/20 03:15:12;;;;;;;6.10;5.30;;;21.00;99.90;;;;;;5074903;28;20618;-72
2022/07/20 03:17:48;;;;;;;7.90;5.33;;;21.00;99.90;;;;;;5073956;28;20571;-72
2022/07/20 03:20:19;;;;;;;6.17;5.50;;;20.90;99.90;;;;;;5073794;28;20993;-72
2022/07/20 03:22:45;;;;;;;7.70;5.20;;;20.90;99.90;;;;;;5073553;28;21140;-72
2022/07/20 03:25:12;;;;;;;6.70;5.97;;;20.70;99.90;;;;;;5073793;28;20785;-72
2022/07/20 03:27:38;;;;;;;5.97;5.33;;;20.60;99.90;;;;;;5053262;28;20571;-72
2022/07/20 03:30:06;;;;;;;5.50;5.10;;;20.60;99.90;;;;;;5073349;28;20707;-72
2022/07/20 03:32:32;;;;;;;6.17;5.57;;;20.60;99.90;;;;;;5073732;28;20571;-72
2022/07/20 03:34:59;;;;;;;10.27;5.83;;;20.60;99.90;;;;;;5052099;28;21121;-71
2022/07/20 03:37:26;;;;;;;8.83;6.67;;;20.60;99.90;;;;;;5069376;28;20590;-71
2022/07/20 03:39:53;;;;;;;8.30;5.50;;;20.50;99.90;;;;;;5073383;28;20650;-71
2022/07/20 03:42:19;;;;;;;6.77;5.60;;;20.50;99.90;;;;;;5073464;28;20574;-71
2022/07/20 03:44:46;;;;;;;6.70;5.70;;;20.50;99.90;;;;;;5073288;28;20632;-71
2022/07/20 03:47:12;;;;;;;6.47;5.70;;;20.40;99.90;;;;;;5073169;28;20590;-71
2022/07/20 03:49:39;;;;;;;7.10;6.20;;;20.40;99.90;;;;;;5072888;28;20614;-71
2022/07/20 03:52:06;;;;;;;6.20;4.90;;;20.50;99.90;;;;;;5073309;28;20582;-71
2022/07/20 03:54:32;;;;;;;9.17;5.30;;;20.60;99.90;;;;;;5073058;28;20687;-71
2022/07/20 03:56:58;;;;;;;8.00;5.07;;;20.70;99.90;;;;;;5073378;28;20579;-71
2022/07/20 03:59:25;;;;;;;6.63;5.83;;;20.70;99.90;;;;;;5071599;28;20695;-71
2022/07/20 04:01:51;;;;;;;12.33;5.57;;;20.80;99.90;;;;;;5072895;28;20616;-71
2022/07/20 04:04:18;;;;;;;10.00;5.20;;;20.60;99.90;;;;;;5072836;28;21152;-71
2022/07/20 04:06:44;;;;;;;6.63;4.93;;;20.50;99.90;;;;;;5072738;28;20614;-71
2022/07/20 04:09:11;;;;;;;21.03;6.70;;;20.40;99.90;;;;;;5051220;28;21235;-71
2022/07/20 04:11:37;;;;;;;6.30;5.80;;;20.40;99.90;;;;;;5070510;28;20562;-71
2022/07/20 04:14:04;;;;;;;5.70;5.10;;;20.40;99.90;;;;;;5071940;28;20621;-71
2022/07/20 04:16:30;;;;;;;6.70;6.10;;;20.30;99.90;;;;;;5051917;28;20567;-71
2022/07/20 04:18:57;;;;;;;7.53;5.83;;;20.40;99.90;;;;;;5072735;28;21136;-71
2022/07/20 04:21:23;;;;;;;6.90;5.40;;;20.30;99.90;;;;;;5072766;28;20571;-71
2022/07/20 04:23:50;;;;;;;10.67;6.30;;;20.30;99.90;;;;;;5072321;28;20722;-71
2022/07/20 04:26:16;;;;;;;5.77;5.17;;;20.40;99.90;;;;;;5051557;28;20640;-70
2022/07/20 04:28:42;;;;;;;6.97;5.63;;;20.40;99.90;;;;;;5070166;28;21176;-70
2022/07/20 04:31:09;;;;;;;9.50;5.90;;;20.40;99.90;;;;;;5071033;28;21030;-70
2022/07/20 04:33:35;;;;;;;6.27;5.67;;;20.20;99.90;;;;;;5072375;28;20656;-70
2022/07/20 04:36:02;;;;;;;7.33;5.53;;;20.00;99.90;;;;;;5072529;28;20579;-70
2022/07/20 04:38:28;;;;;;;7.43;5.60;;;19.90;99.90;;;;;;5072276;28;20622;-71
2022/07/20 04:40:55;;;;;;;6.50;5.87;;;19.80;99.90;;;;;;5072176;28;20650;-71
2022/07/20 04:43:23;;;;;;;15.00;6.70;;;20.20;99.90;;;;;;5072581;28;20571;-71
2022/07/20 04:45:49;;;;;;;10.77;6.13;;;20.50;99.90;;;;;;5071654;28;20720;-71
2022/07/20 04:48:16;;;;;;;13.03;7.00;;;20.80;99.90;;;;;;5072105;28;20628;-71
2022/07/20 04:50:42;;;;;;;11.93;5.83;;;20.90;99.90;;;;;;5072280;28;20582;-71
2022/07/20 04:53:09;;;;;;;13.10;6.00;;;21.00;99.90;;;;;;5072691;28;20613;-71
2022/07/20 04:55:35;;;;;;;6.40;5.87;;;21.20;99.90;;;;;;5071865;28;20622;-71
2022/07/20 04:58:01;;;;;;;8.97;6.50;;;21.20;99.90;;;;;;5070757;28;20978;-71
2022/07/20 05:00:28;;;;;;;10.03;5.90;;;21.20;99.90;;;;;;5072184;28;21105;-71
2022/07/20 05:02:54;;;;;;;10.80;5.70;;;21.30;99.90;;;;;;5072363;28;21169;-71
2022/07/20 05:05:21;;;;;;;11.80;6.27;;;21.20;99.90;;;;;;5072085;28;20626;-71
2022/07/20 05:07:48;;;;;;;12.33;6.17;;;21.30;99.90;;;;;;5072430;28;20593;-71
2022/07/20 05:10:14;;;;;;;7.03;6.33;;;21.50;99.90;;;;;;5072918;28;20578;-71
2022/07/20 05:12:40;;;;;;;13.90;7.37;;;21.60;99.90;;;;;;5072691;28;20625;-71
2022/07/20 05:15:07;;;;;;;11.93;6.40;;;21.90;99.90;;;;;;5076093;28;20730;-69
2022/07/20 05:17:34;;;;;;;10.73;6.43;;;22.10;99.90;;;;;;5075879;28;20613;-69
2022/07/20 05:20:00;;;;;;;16.57;8.83;;;22.40;99.90;;;;;;5076474;28;20631;-69
2022/07/20 05:22:27;;;;;;;14.07;7.00;;;22.60;99.90;;;;;;5076612;28;20595;-69
2022/07/20 05:24:53;;;;;;;12.80;6.87;;;22.90;99.90;;;;;;5076229;28;21175;-69
2022/07/20 05:27:20;;;;;;;16.60;6.90;;;23.10;99.90;;;;;;5076364;28;20574;-69
2022/07/20 05:29:46;;;;;;;11.77;6.73;;;23.30;99.90;;;;;;5076981;28;20590;-69
2022/07/20 05:32:12;;;;;;;11.47;6.20;;;23.50;99.90;;;;;;5076188;28;20680;-69
2022/07/20 05:34:39;;;;;;;14.17;6.77;;;23.70;99.90;;;;;;5076833;28;20939;-70
2022/07/20 05:37:05;;;;;;;13.23;7.87;;;23.90;99.90;;;;;;5075933;28;20945;-69
2022/07/20 05:39:32;;;;;;;12.57;7.07;;;24.00;99.90;;;;;;5076288;28;20635;-69
2022/07/20 05:41:58;;;;;;;15.10;6.10;;;24.10;99.90;;;;;;5076324;28;20578;-71
2022/07/20 05:44:25;;;;;;;6.93;5.60;;;24.20;99.90;;;;;;5074715;28;21161;-72
2022/07/20 05:46:51;;;;;;;18.37;6.67;;;24.30;99.90;;;;;;5074880;28;20617;-72
2022/07/20 05:49:18;;;;;;;15.53;8.40;;;24.50;99.90;;;;;;5074795;28;20618;-72
2022/07/20 05:51:44;;;;;;;6.10;5.60;;;24.60;99.90;;;;;;5075132;28;21190;-73
2022/07/20 05:54:11;;;;;;;12.33;6.47;;;24.70;99.90;;;;;;5075079;28;20633;-71
2022/07/20 05:56:37;;;;;;;10.43;5.50;;;24.80;99.90;;;;;;5075256;28;20632;-71
2022/07/20 05:59:03;;;;;;;10.37;5.97;;;24.90;99.90;;;;;;5075334;28;21170;-71
2022/07/20 06:01:30;;;;;;;9.43;5.93;;;24.70;99.90;;;;;;5073519;28;20669;-72
2022/07/20 06:03:57;;;;;;;10.47;5.87;;;24.80;99.90;;;;;;5075042;28;20586;-73
2022/07/20 06:06:24;;;;;;;6.60;5.30;;;24.70;99.90;;;;;;5074238;28;20669;-74
2022/07/20 06:08:50;;;;;;;9.47;6.00;;;24.90;99.90;;;;;;5074672;28;21160;-73
2022/07/20 06:11:16;;;;;;;10.20;5.23;;;25.00;99.90;;;;;;5074422;28;20582;-74
2022/07/20 06:13:43;;;;;;;13.23;7.03;;;25.20;99.90;;;;;;5075040;28;20570;-74
2022/07/20 06:16:09;;;;;;;15.20;6.10;;;25.10;99.90;;;;;;5074774;28;20922;-74
2022/07/20 06:18:36;;;;;;;11.03;5.50;;;25.20;99.90;;;;;;5074549;28;20602;-73
2022/07/20 06:21:02;;;;;;;8.63;5.70;;;25.30;99.90;;;;;;5074653;28;20947;-74
2022/07/20 06:23:28;;;;;;;10.57;5.73;;;25.30;99.90;;;;;;5053732;28;20598;-75
2022/07/20 06:25:55;;;;;;;9.40;6.27;;;25.30;99.90;;;;;;5073458;28;20630;-75
2022/07/20 06:28:21;;;;;;;6.60;5.80;;;25.50;99.90;;;;;;5075175;28;20571;-74
2022/07/20 06:30:48;;;;;;;9.03;5.90;;;25.60;99.90;;;;;;5074529;28;20587;-74
2022/07/20 06:33:14;;;;;;;9.37;5.87;;;25.40;99.90;;;;;;5074689;28;21001;-72
2022/07/20 06:35:41;;;;;;;13.77;5.90;;;25.40;99.90;;;;;;5073822;28;20952;-69
2022/07/20 06:38:07;;;;;;;17.07;6.50;;;25.60;99.90;;;;;;5039377;28;20987;-70
2022/07/20 06:40:34;;;;;;;12.00;7.00;;;25.60;99.90;;;;;;5053042;28;21205;-70
2022/07/20 06:43:00;;;;;;;13.23;6.10;;;25.70;99.90;;;;;;5074333;28;20709;-71
2022/07/20 06:45:27;;;;;;;11.77;6.50;;;25.90;99.90;;;;;;5073651;28;20711;-71
2022/07/20 06:47:53;;;;;;;14.27;6.97;;;26.10;99.90;;;;;;5074276;28;20607;-70
2022/07/20 06:50:20;;;;;;;15.87;6.10;;;26.10;99.90;;;;;;5074061;28;21199;-73
2022/07/20 06:52:46;;;;;;;14.43;6.63;;;26.00;99.90;;;;;;5074131;28;20618;-71
2022/07/20 06:55:12;;;;;;;12.50;5.90;;;26.10;99.90;;;;;;5073829;28;20634;-71
2022/07/20 06:57:39;;;;;;;8.80;6.60;;;26.10;99.90;;;;;;5073897;28;20616;-71
2022/07/20 07:00:07;;;;;;;6.73;6.13;;;26.10;99.90;;;;;;5074153;28;20566;-72
2022/07/20 07:02:34;;;;;;;6.47;5.80;;;26.20;99.90;;;;;;5073162;28;20614;-70
2022/07/20 07:05:00;;;;;;;9.00;6.60;;;26.30;99.90;;;;;;5073899;28;21180;-71
2022/07/20 07:07:27;;;;;;;10.70;6.57;;;26.30;99.90;;;;;;5073296;28;20614;-70
2022/07/20 07:09:53;;;;;;;7.40;6.37;;;26.20;99.90;;;;;;5073778;28;20618;-70
2022/07/20 07:12:20;;;;;;;8.83;5.47;;;26.20;99.90;;;;;;5073467;28;20698;-69
2022/07/20 07:14:46;;;;;;;6.57;5.97;;;26.50;99.90;;;;;;5074039;28;20578;-72
2022/07/20 07:17:13;;;;;;;11.20;6.57;;;26.70;99.90;;;;;;5073500;28;20916;-71
2022/07/20 07:19:40;;;;;;;9.00;6.70;;;26.50;99.90;;;;;;5036593;28;20623;-71
2022/07/20 07:22:07;;;;;;;12.60;6.40;;;26.90;99.90;;;;;;5073226;28;20614;-71
2022/07/20 07:24:33;;;;;;;7.47;6.60;;;27.20;99.90;;;;;;5052181;28;20643;-70
2022/07/20 07:26:59;;;;;;;11.53;6.80;;;27.20;99.90;;;;;;5073193;28;21152;-71
2022/07/20 07:29:26;;;;;;;6.93;6.23;;;27.20;99.90;;;;;;5072224;28;20618;-71
2022/07/20 07:31:58;;;;;;;8.73;7.17;;;27.60;99.90;;;;;;5073183;28;20584;-72
2022/07/20 07:34:26;;;;;;;13.60;7.03;;;27.80;99.90;;;;;;5073037;28;20634;-71
2022/07/20 07:36:53;;;;;;;8.97;6.53;;;28.30;99.90;;;;;;5072256;28;20618;-70
2022/07/20 07:39:19;;;;;;;8.47;6.53;;;28.10;99.90;;;;;;5073138;28;20605;-70
2022/07/20 07:41:45;;;;;;;12.00;7.60;;;28.20;99.90;;;;;;5071382;28;20622;-71
2022/07/20 07:44:12;;;;;;;7.30;6.70;;;28.60;99.90;;;;;;5052083;28;20610;-70
2022/07/20 07:46:39;;;;;;;8.53;6.30;;;28.50;99.90;;;;;;5071001;28;20633;-70
2022/07/20 07:49:05;;;;;;;7.33;6.63;;;28.50;99.90;;;;;;5072860;28;20664;-70
2022/07/20 07:51:32;;;;;;;6.80;6.10;;;28.50;99.90;;;;;;5073214;28;20629;-69
2022/07/20 07:53:59;;;;;;;8.53;7.70;;;28.80;99.90;;;;;;5072280;28;21051;-69
2022/07/20 07:56:26;;;;;;;7.40;6.90;;;28.70;99.90;;;;;;5073347;28;20585;-70
2022/07/20 07:58:52;;;;;;;11.60;6.90;;;28.40;99.90;;;;;;5073534;28;20896;-70
2022/07/20 08:01:18;;;;;;;8.10;7.40;;;28.50;99.90;;;;;;5073413;28;20690;-70
2022/07/20 08:03:45;;;;;;;11.67;7.53;;;28.20;99.90;;;;;;5073060;28;20587;-69
2022/07/20 08:06:11;;;;;;;10.03;6.87;;;28.40;99.90;;;;;;5072943;28;21206;-69
2022/07/20 08:08:38;;;;;;;11.27;7.63;;;28.60;99.90;;;;;;5073008;28;20602;-69
2022/07/20 08:11:05;;;;;;;7.40;6.70;;;29.00;99.90;;;;;;5051851;28;20591;-71
2022/07/20 08:13:31;;;;;;;11.87;7.30;;;29.00;99.90;;;;;;5069925;28;20571;-70
2022/07/20 08:15:58;;;;;;;8.33;7.50;;;29.00;99.90;;;;;;5051883;28;20637;-72
2022/07/20 08:18:24;;;;;;;7.50;6.90;;;29.10;99.90;;;;;;5068665;28;21116;-70
2022/07/20 08:20:51;;;;;;;8.13;7.33;;;29.40;99.90;;;;;;5072897;28;20940;-71
2022/07/20 08:23:17;;;;;;;9.37;6.73;;;29.30;99.90;;;;;;5072879;28;21109;-71
2022/07/20 08:25:44;;;;;;;9.00;7.07;;;29.70;99.90;;;;;;5073023;28;20642;-70
2022/07/20 08:28:16;;;;;;;7.60;6.53;;;29.40;99.90;;;;;;5072397;28;20625;-70
2022/07/20 08:30:45;;;;;;;7.23;6.53;;;29.40;99.90;;;;;;5072070;28;20614;-71
2022/07/20 08:33:12;;;;;;;9.67;7.20;;;29.30;99.90;;;;;;5071753;28;20618;-71
2022/07/20 08:35:39;;;;;;;13.27;8.07;;;29.30;99.90;;;;;;5072728;28;20574;-71
2022/07/20 08:38:06;;;;;;;9.53;8.53;;;29.60;99.90;;;;;;5072506;28;21109;-70
2022/07/20 08:40:34;;;;;;;9.80;7.93;;;29.30;99.90;;;;;;5072329;28;21017;-70
2022/07/20 08:43:02;;;;;;;10.17;7.53;;;29.50;99.90;;;;;;5072488;28;20578;-70
2022/07/20 08:45:29;;;;;;;12.90;7.30;;;29.90;99.90;;;;;;5072329;28;20649;-71
2022/07/20 08:48:02;;;;;;;8.50;7.40;;;30.10;99.90;;;;;;5072367;28;20614;-72
2022/07/20 08:50:31;;;;;;;9.70;8.70;;;30.10;99.90;;;;;;5076286;28;20640;-70
2022/07/20 08:52:58;;;;;;;8.97;8.10;;;30.20;99.90;;;;;;5058047;28;20650;-70
2022/07/20 08:55:26;;;;;;;12.63;7.83;;;30.30;99.90;;;;;;5075893;28;21037;-70
2022/07/20 08:57:52;;;;;;;9.50;8.50;;;30.30;99.90;;;;;;5075778;28;20625;-71
2022/07/20 09:00:19;;;;;;;12.77;8.87;;;30.20;99.90;;;;;;5055207;28;20622;-74
2022/07/20 09:03:03;;;;;;;8.80;7.90;;;30.30;99.90;;;;;;5075309;28;20925;-73
2022/07/20 09:05:36;;;;;;;10.83;9.47;;;30.70;99.90;;;;;;5075713;28;20746;-73
2022/07/20 09:08:05;;;;;;;14.47;9.50;;;30.60;99.90;;;;;;5076402;28;20581;-74
2022/07/20 09:10:37;;;;;;;10.33;8.83;;;30.80;99.90;;;;;;5076154;28;20618;-74
2022/07/20 09:13:07;;;;;;;16.00;9.57;;;30.80;99.90;;;;;;5076065;28;20562;-74
2022/07/20 09:15:38;;;;;;;10.40;9.57;;;30.90;99.90;;;;;;5075924;28;20614;-73
2022/07/20 09:18:19;;;;;;;11.00;10.10;;;31.10;99.90;;;;;;5061020;28;20618;-73
2022/07/20 09:20:54;;;;;;;11.03;10.03;;;31.50;99.90;;;;;;5076190;28;20585;-73
2022/07/20 09:23:33;;;;;;;12.00;10.00;;;31.30;99.90;;;;;;5068570;28;20631;-73
2022/07/20 09:26:14;;;;;;;13.40;11.43;;;31.50;99.90;;;;;;5068656;28;20629;-73
2022/07/20 09:28:46;;;;;;;13.40;12.20;;;31.90;99.90;;;;;;5076194;28;20582;-73
2022/07/20 09:31:42;;;;;;;18.73;13.00;;;31.60;99.90;;;;;;5077191;28;20642;-73
2022/07/20 09:34:10;;;;;;;22.83;11.77;;;31.70;99.90;;;;;;5064449;28;20630;-70
2022/07/20 09:36:39;;;;;;;14.10;11.63;;;32.20;99.90;;;;;;5075671;28;20984;-73
2022/07/20 09:39:12;;;;;;;12.73;11.63;;;31.60;99.90;;;;;;5075863;28;20574;-74
2022/07/20 09:41:41;;;;;;;14.53;12.07;;;31.90;99.90;;;;;;5075832;28;20662;-74
2022/07/20 09:44:12;;;;;;;14.80;12.33;;;32.00;99.90;;;;;;5075689;28;20566;-73
2022/07/20 09:46:39;;;;;;;18.20;12.90;;;32.00;99.90;;;;;;5072026;28;21179;-72
2022/07/20 09:49:10;;;;;;;16.90;12.53;;;32.10;99.90;;;;;;5075535;28;20611;-72
2022/07/20 09:51:41;;;;;;;20.57;13.57;;;32.10;99.90;;;;;;5075274;28;20589;-72
2022/07/20 09:54:17;;;;;;;17.70;13.48;;;32.70;99.90;;;;;;5076663;28;21314;-70
2022/07/20 09:56:49;;;;;;;15.50;13.13;;;32.90;99.90;;;;;;5079326;28;20552;-69
2022/07/20 09:59:17;;;;;;;15.93;13.20;;;32.90;99.90;;;;;;5078093;28;20593;-70
2022/07/20 10:01:46;;;;;;;21.83;14.23;;;33.40;99.90;;;;;;5077520;28;20590;-69
2022/07/20 10:04:14;;;;;;;17.00;15.03;;;33.20;99.90;;;;;;5077915;28;20585;-71
2022/07/20 10:06:42;;;;;;;19.57;16.67;;;33.00;99.90;;;;;;5079135;28;20661;-70
2022/07/20 10:09:11;;;;;;;24.93;16.53;;;32.80;99.90;;;;;;5078930;28;20741;-70
2022/07/20 10:11:37;;;;;;;18.70;17.07;;;32.60;99.90;;;;;;5061433;28;20779;-70
2022/07/20 10:14:05;;;;;;;19.03;17.30;;;32.70;99.90;;;;;;5079749;28;20589;-70
2022/07/20 10:16:45;;;;;;;18.80;16.80;;;32.80;99.90;;;;;;5077340;28;20610;-70
2022/07/20 10:19:11;;;;;;;28.47;16.80;;;33.20;99.90;;;;;;5077156;28;20683;-67
2022/07/20 10:21:39;;;;;;;16.83;15.10;;;33.30;99.90;;;;;;5078165;28;20620;-68
2022/07/20 10:24:22;;;;;;;17.77;16.20;;;32.90;99.90;;;;;;5078201;28;20639;-70
2022/07/20 10:26:53;;;;;;;17.60;16.00;;;33.00;99.90;;;;;;5076786;28;20661;-68
2022/07/20 10:29:38;;;;;;;18.77;16.90;;;33.40;99.90;;;;;;5076477;28;20571;-67
2022/07/20 10:32:20;;;;;;;18.00;16.57;;;33.30;99.90;;;;;;5077569;28;20691;-67
2022/07/20 10:34:58;;;;;;;19.00;16.93;;;33.00;99.90;;;;;;5077479;28;20614;-67
2022/07/20 10:37:37;;;;;;;18.23;16.63;;;33.30;99.90;;;;;;5077822;28;20582;-68
2022/07/20 10:40:05;;;;;;;21.33;18.70;;;33.50;99.90;;;;;;5076166;28;20665;-68
2022/07/20 10:42:37;;;;;;;21.43;16.47;;;33.70;99.90;;;;;;5058306;28;20618;-68
2022/07/20 10:45:19;;;;;;;20.10;17.97;;;33.60;99.90;;;;;;5076739;28;20714;-69
2022/07/20 10:47:53;;;;;;;18.90;17.17;;;34.00;99.90;;;;;;5075311;28;20618;-68
2022/07/20 10:50:50;;;;;;;19.93;17.43;;;33.50;99.90;;;;;;5068798;28;20622;-69
2022/07/20 10:53:16;;;;;;;20.13;17.17;;;33.70;99.90;;;;;;5075507;28;20779;-69
2022/07/20 10:55:50;;;;;;;19.70;18.03;;;33.70;99.90;;;;;;5075849;28;20605;-69
2022/07/20 10:58:20;;;;;;;19.10;17.50;;;34.10;99.90;;;;;;5074482;28;21124;-69
2022/07/20 11:00:49;;;;;;;21.13;18.70;;;34.30;99.90;;;;;;5074226;28;20581;-68
2022/07/20 11:03:29;;;;;;;19.17;17.23;;;34.20;99.90;;;;;;5074569;28;20624;-68
2022/07/20 11:06:00;;;;;;;25.67;18.50;;;34.60;99.90;;;;;;5074138;28;20666;-68
2022/07/20 11:08:27;;;;;;;20.77;19.10;;;34.50;99.90;;;;;;5073925;28;20643;-68
2022/07/20 11:10:55;;;;;;;22.70;18.33;;;34.40;99.90;;;;;;5073662;28;21186;-68
2022/07/20 11:13:22;;;;;;;20.23;17.67;;;34.00;99.90;;;;;;5073914;28;21125;-69
2022/07/20 11:15:54;;;;;;;21.90;18.13;;;34.20;99.90;;;;;;5073670;28;20656;-69
2022/07/20 11:18:25;;;;;;;20.50;18.50;;;34.30;99.90;;;;;;5074434;28;20579;-69
2022/07/20 11:20:58;;;;;;;19.60;17.73;;;34.40;99.90;;;;;;5074044;28;20559;-69
2022/07/20 11:23:26;;;;;;;22.10;19.90;;;34.40;99.90;;;;;;5073467;28;20630;-70
2022/07/20 11:25:58;;;;;;;21.70;18.53;;;34.10;99.90;;;;;;5073755;28;20657;-70
2022/07/20 11:28:30;;;;;;;23.60;18.27;;;34.50;99.90;;;;;;5073565;28;20574;-68
2022/07/20 11:30:57;;;;;;;20.03;17.93;;;35.00;99.90;;;;;;5074336;28;20589;-68
2022/07/20 11:33:31;;;;;;;21.43;18.53;;;34.60;99.90;;;;;;5073751;28;20579;-68
2022/07/20 11:36:15;;;;;;;21.10;19.17;;;34.90;99.90;;;;;;5073657;28;21124;-69
2022/07/20 11:38:44;;;;;;;19.17;17.53;;;35.50;99.90;;;;;;5074486;28;20571;-69
2022/07/20 11:41:13;;;;;;;20.33;18.10;;;35.90;99.90;;;;;;5073977;28;20649;-69
2022/07/20 11:43:40;;;;;;;23.97;20.83;;;35.30;99.90;;;;;;5073845;28;20567;-70
2022/07/20 11:46:14;;;;;;;27.77;18.33;;;35.30;99.90;;;;;;5074643;28;20670;-70
2022/07/20 11:48:42;;;;;;;20.63;18.37;;;35.60;99.90;;;;;;5073970;28;20618;-69
2022/07/20 11:51:09;;;;;;;21.17;19.10;;;35.70;99.90;;;;;;5074041;28;21235;-70
2022/07/20 11:53:38;;;;;;;19.40;17.57;;;36.00;99.90;;;;;;5073700;28;20578;-70
2022/07/20 11:56:14;;;;;;;19.30;17.33;;;35.50;99.90;;;;;;5073499;28;20578;-70
2022/07/20 11:58:42;;;;;;;24.77;18.30;;;35.90;99.90;;;;;;5072796;28;20991;-70
2022/07/20 12:01:11;;;;;;;20.80;18.57;;;36.50;99.90;;;;;;5073864;28;20590;-69
2022/07/20 12:03:40;;;;;;;18.83;16.67;;;36.00;99.90;;;;;;5055499;28;20645;-69
2022/07/20 12:06:11;;;;;;;20.00;17.37;;;36.00;99.90;;;;;;5073257;28;20661;-69
2022/07/20 12:08:39;;;;;;;19.80;17.87;;;36.20;99.90;;;;;;5072952;28;20575;-70
2022/07/20 12:11:07;;;;;;;20.13;18.03;;;36.00;99.90;;;;;;5073217;28;20617;-71
2022/07/20 12:13:50;;;;;;;21.37;17.40;;;35.30;99.90;;;;;;5073155;28;20636;-70
2022/07/20 12:16:18;;;;;;;18.00;16.40;;;35.50;99.90;;;;;;5073021;28;20892;-70
2022/07/20 12:18:52;;;;;;;17.40;15.87;;;35.80;99.90;;;;;;5072335;28;20971;-70
2022/07/20 12:21:21;;;;;;;17.70;16.07;;;35.90;99.90;;;;;;5066977;28;21093;-69
2022/07/20 12:23:50;;;;;;;22.50;17.10;;;35.40;99.90;;;;;;5076108;28;20642;-70
2022/07/20 12:26:20;;;;;;;17.80;15.93;;;34.80;99.90;;;;;;5076768;28;20723;-70
2022/07/20 12:28:47;;;;;;;16.73;15.17;;;35.00;99.90;;;;;;5076977;28;20618;-70
2022/07/20 12:31:16;;;;;;;16.97;14.90;;;34.80;99.90;;;;;;5076676;28;20613;-69
2022/07/20 12:34:03;;;;;;;17.33;14.47;;;34.70;99.90;;;;;;5076894;28;20579;-69
2022/07/20 12:36:34;;;;;;;22.47;14.30;;;34.10;99.90;;;;;;5077090;28;20616;-69
2022/07/20 12:39:03;;;;;;;17.20;14.67;;;33.80;99.90;;;;;;5077451;28;20612;-69
2022/07/20 12:41:29;;;;;;;16.07;14.47;;;33.60;99.90;;;;;;5077227;28;20638;-69
2022/07/20 12:43:56;;;;;;;16.00;13.57;;;33.40;99.90;;;;;;5077266;28;20578;-69
2022/07/20 12:46:24;;;;;;;13.53;12.30;;;33.60;99.90;;;;;;5077013;28;20637;-69